Latest Weather Observations for Griffith

IDN60801

Issued at 11:12 pm EDT Friday 15 November 2019 (issued every 10 minutes, with the page automatically refreshed every 10 minutes)

About weather observations | Map of weather stations | Latest weather observations for NSW | Other Formats
Station Details ID: 075041 Name: GRIFFITH AIRPORT AWS Lat: -34.25 Lon: 146.07 Height: 134.0 m
Data from the previous 72 hours. | See also: Recent months at Griffith
Date/Time
EDT
Temp
°C
App
Temp
°C
Dew
Point
°C
Rel
Hum
%
Delta-T
°C
Wind Press
QNH
hPa
Press
MSL
hPa
Rain since
9am
mm
Dir  Spd
km/h
Gust
km/h
Spd
kts
Gust
kts
15/11:00pm 19.3 14.6 6.1 42 6.6 SSW 20 30 11 16 1014.9 1014.5 0.0
15/10:30pm 18.5 16.0 6.4 45 6.0 W 9 11 5 6 1014.7 1014.3 0.0
15/10:00pm 18.5 15.8 5.7 43 6.3 W 9 13 5 7 1014.3 1013.9 0.0
15/09:30pm 19.0 15.4 5.1 40 6.8 W 13 15 7 8 1014.1 1013.7 0.0
15/09:00pm 19.6 16.1 5.3 39 7.0 W 13 19 7 10 1013.8 1013.4 0.0
15/08:30pm 19.9 16.3 4.8 37 7.4 W 13 19 7 10 1013.7 1013.3 0.0
15/08:00pm 20.3 16.6 4.4 35 7.7 W 13 17 7 9 1013.2 1012.8 0.0
15/07:30pm 21.4 16.3 4.0 32 8.5 W 20 28 11 15 1012.8 1012.4 0.0
15/07:00pm 22.2 16.4 4.3 31 8.8 WSW 24 33 13 18 1012.5 1012.1 0.0
15/06:30pm 22.4 15.7 3.5 29 9.2 WSW 28 37 15 20 1012.0 1011.6 0.0
15/06:00pm 23.7 16.7 4.1 28 9.7 WSW 30 41 16 22 1011.6 1011.2 0.0
15/05:30pm 23.5 17.2 4.0 28 9.6 W 26 39 14 21 1011.5 1011.1 0.0
15/05:00pm 24.0 17.6 3.3 26 10.1 W 26 35 14 19 1011.4 1011.0 0.0
15/04:30pm 23.7 16.1 3.1 26 10.0 W 32 44 17 24 1011.5 1011.1 0.0
15/04:00pm 24.5 18.0 4.8 28 9.9 WSW 28 46 15 25 1011.5 1011.1 0.0
15/03:30pm 23.8 16.8 4.2 28 9.7 W 30 44 16 24 1011.8 1011.4 0.0
15/03:00pm 23.7 16.1 4.1 28 9.7 W 33 46 18 25 1012.2 1011.8 0.0
15/02:30pm 23.8 16.5 4.7 29 9.6 W 32 43 17 23 1012.3 1011.9 0.0
15/02:00pm 23.3 16.0 4.3 29 9.4 W 32 43 17 23 1012.4 1012.0 0.0
15/01:30pm 22.6 16.1 4.6 31 8.9 W 28 39 15 21 1012.7 1012.3 0.0
15/01:00pm 22.8 16.4 5.3 32 8.8 WNW 28 44 15 24 1013.0 1012.6 0.0
15/12:30pm 22.4 16.0 5.4 33 8.5 W 28 37 15 20 1013.2 1012.8 0.0
15/12:00pm 20.9 13.6 4.5 34 8.0 W 32 41 17 22 1013.6 1013.2 0.0
15/11:30am 20.5 13.9 6.1 39 7.2 WNW 30 41 16 22 1013.9 1013.5 0.0
15/11:00am 19.7 13.6 6.8 43 6.5 WNW 28 39 15 21 1014.2 1013.8 0.0
15/10:30am 19.4 14.6 7.5 46 6.1 W 22 30 12 16 1014.5 1014.1 0.0
15/10:00am 17.8 13.3 7.0 49 5.4 W 20 30 11 16 1014.7 1014.3 0.0
15/09:30am 17.4 13.0 7.2 51 5.1 WSW 20 28 11 15 1014.8 1014.4 0.0
15/09:00am 17.0 12.2 7.4 53 4.8 WSW 22 33 12 18 1014.8 1014.4 0.0
15/08:30am 16.1 10.5 7.1 55 4.5 WSW 26 32 14 17 1014.6 1014.2 0.0
15/08:00am 15.0 10.0 6.6 57 4.1 WSW 22 32 12 17 1014.4 1014.0 0.0
15/07:30am 14.0 10.0 6.6 61 3.6 WSW 17 22 9 12 1014.1 1013.7 0.0
15/07:00am 12.2 10.1 6.0 66 2.9 WNW 6 7 3 4 1013.9 1013.5 0.0
15/06:30am 10.5 7.9 5.9 73 2.1 NW 9 9 5 5 1013.5 1013.1 0.0
15/06:00am 10.0 7.8 6.0 76 1.9 NW 7 9 4 5 1012.9 1012.5 0.0
15/05:30am 9.7 8.2 5.1 73 2.1 NW 2 7 1 4 1012.3 1011.9 0.0
15/05:00am 10.0 9.0 5.4 73 2.1 CALM 0 0 0 0 1012.2 1011.8 0.0
15/04:30am 10.8 8.7 5.8 71 2.3 W 6 9 3 5 1012.3 1011.9 0.0
15/04:00am 10.5 9.5 5.5 71 2.3 CALM 0 0 0 0 1012.1 1011.7 0.0
15/03:30am 10.9 9.9 5.7 70 2.4 CALM 0 0 0 0 1012.4 1012.0 0.0
15/03:00am 11.1 10.1 5.4 68 2.6 CALM 0 0 0 0 1012.7 1012.3 0.0
15/02:30am 11.4 10.4 5.7 68 2.7 CALM 0 0 0 0 1012.9 1012.5 0.0
15/02:00am 11.6 10.7 5.9 68 2.7 CALM 0 0 0 0 1013.2 1012.8 0.0
15/01:30am 12.0 11.1 5.9 66 2.9 CALM 0 0 0 0 1013.5 1013.1 0.0
15/01:00am 11.9 10.9 5.8 66 2.9 CALM 0 0 0 0 1013.7 1013.3 0.0
15/12:30am 13.1 12.3 6.7 65 3.1 CALM 0 0 0 0 1013.9 1013.5 0.0
15/12:00am 13.2 12.4 6.5 64 3.2 CALM 0 0 0 0 1014.0 1013.6 0.0
 
Date/Time
EDT
Temp
°C
App
Temp
°C
Dew
Point
°C
Rel
Hum
%
Delta-T
°C
Wind Press
QNH
hPa
Press
MSL
hPa
Rain since
9am
mm
Dir  Spd
km/h
Gust
km/h
Spd
kts
Gust
kts
14/11:30pm 13.6 12.8 6.5 62 3.4 CALM 0 0 0 0 1014.1 1013.7 0.0
14/11:00pm 14.2 13.4 6.3 59 3.8 CALM 0 0 0 0 1014.4 1014.0 0.0
14/10:30pm 14.9 14.0 6.2 56 4.2 CALM 0 0 0 0 1014.4 1014.0 0.0
14/10:00pm 15.6 14.7 6.1 53 4.6 CALM 0 0 0 0 1014.5 1014.1 0.0
14/09:30pm 17.7 15.7 6.3 47 5.7 WNW 6 7 3 4 1014.3 1013.9 0.0
14/09:00pm 18.8 16.5 5.6 42 6.5 W 7 9 4 5 1014.1 1013.7 0.0
14/08:30pm 20.3 17.2 5.5 38 7.4 W 11 13 6 7 1013.9 1013.5 0.0
14/08:00pm 21.6 18.0 5.1 34 8.2 W 13 17 7 9 1013.9 1013.5 0.0
14/07:30pm 23.1 18.4 5.1 31 9.0 W 19 26 10 14 1013.7 1013.3 0.0
14/07:00pm 24.0 18.3 4.9 29 9.6 W 24 30 13 16 1013.5 1013.1 0.0
14/06:30pm 24.8 20.0 5.6 29 9.8 W 20 28 11 15 1013.5 1013.1 0.0
14/06:00pm 24.9 19.3 5.2 28 10.0 W 24 35 13 19 1013.6 1013.2 0.0
14/05:30pm 24.6 19.1 5.9 30 9.6 W 24 33 13 18 1013.9 1013.5 0.0
14/05:00pm 25.1 20.1 6.3 30 9.8 W 22 37 12 20 1014.1 1013.7 0.0
14/04:30pm 24.8 20.2 6.5 31 9.5 W 20 33 11 18 1014.3 1013.9 0.0
14/04:00pm 24.3 18.7 5.6 30 9.5 W 24 35 13 19 1014.6 1014.2 0.0
14/03:30pm 24.0 18.6 6.3 32 9.1 W 24 35 13 19 1015.1 1014.7 0.0
14/03:00pm 23.9 19.0 7.1 34 8.8 W 22 35 12 19 1015.5 1015.1 0.0
14/02:30pm 22.9 17.6 6.6 35 8.4 WSW 24 35 13 19 1016.1 1015.6 0.0
14/02:00pm 22.3 18.1 7.3 38 7.8 W 19 32 10 17 1016.4 1015.9 0.0
14/01:30pm 22.1 17.5 6.7 37 7.9 W 20 33 11 18 1016.9 1016.4 0.0
14/01:00pm 21.3 16.5 7.2 40 7.3 W 22 32 12 17 1017.3 1016.8 0.0
14/12:30pm 20.8 16.8 6.7 40 7.2 W 17 28 9 15 1017.8 1017.4 0.0
14/12:00pm 20.6 16.4 7.6 43 6.7 W 19 30 10 16 1018.2 1017.8 0.0
14/11:30am 19.4 15.7 7.8 47 6.0 WNW 17 30 9 16 1018.4 1018.0 0.0
14/11:00am 18.6 14.5 8.0 50 5.5 WSW 19 28 10 15 1018.7 1018.3 0.0
14/10:30am 18.2 15.0 8.5 53 5.0 WNW 15 28 8 15 1018.8 1018.4 0.0
14/10:00am 16.8 14.0 8.5 58 4.3 W 13 20 7 11 1019.0 1018.6 0.0
14/09:30am 16.3 13.2 8.8 61 3.9 SW 15 24 8 13 1019.3 1018.9 0.0
14/09:00am 16.1 12.6 8.8 62 3.8 WSW 17 26 9 14 1019.3 1018.9 0.0
14/08:30am 15.1 11.7 9.0 67 3.1 SW 17 22 9 12 1018.9 1018.5 0.0
14/08:00am 13.9 11.0 8.3 69 2.8 WSW 13 17 7 9 1018.7 1018.3 0.0
14/07:30am 12.8 10.6 7.9 72 2.4 WNW 9 13 5 7 1018.5 1018.1 0.0
14/07:00am 11.8 9.5 7.5 75 2.1 NW 9 11 5 6 1018.1 1017.7 0.0
14/06:30am 10.6 9.2 7.1 79 1.7 NW 4 9 2 5 1017.7 1017.3 0.0
14/06:00am 10.4 7.6 6.9 79 1.7 NW 11 13 6 7 1017.4 1016.9 0.0
14/05:30am 10.1 7.9 6.3 77 1.8 WSW 7 11 4 6 1017.0 1016.5 0.0
14/05:00am 9.6 7.5 5.6 76 1.8 WNW 6 7 3 4 1016.8 1016.3 0.0
14/04:30am 10.7 8.4 5.5 70 2.4 WSW 7 9 4 5 1016.9 1016.4 0.0
14/04:00am 12.1 8.7 5.7 65 3.0 SW 13 15 7 8 1017.0 1016.5 0.0
14/03:30am 11.6 8.5 5.5 66 2.8 SW 11 15 6 8 1017.0 1016.5 0.0
14/03:00am 11.6 8.8 5.0 64 3.0 WSW 9 9 5 5 1017.2 1016.7 0.0
14/02:30am 12.3 9.5 5.2 62 3.3 SW 9 11 5 6 1017.2 1016.7 0.0
14/02:00am 12.9 10.0 4.8 58 3.7 SW 9 13 5 7 1017.3 1016.8 0.0
14/01:30am 13.9 10.3 4.8 54 4.3 SW 13 17 7 9 1017.5 1017.0 0.0
14/01:00am 14.2 10.5 4.5 52 4.5 SW 13 15 7 8 1017.7 1017.3 0.0
14/12:30am 14.1 10.7 4.1 51 4.6 WSW 11 15 6 8 1017.8 1017.4 0.0
14/12:00am 15.3 11.1 3.8 46 5.3 SW 15 19 8 10 1018.1 1017.7 0.0
 
Date/Time
EDT
Temp
°C
App
Temp
°C
Dew
Point
°C
Rel
Hum
%
Delta-T
°C
Wind Press
QNH
hPa
Press
MSL
hPa
Rain since
9am
mm
Dir  Spd
km/h
Gust
km/h
Spd
kts
Gust
kts
13/11:30pm 15.6 11.4 3.7 45 5.5 WSW 15 20 8 11 1018.2 1017.8 0.0
13/11:00pm 15.9 10.9 3.7 44 5.6 WSW 19 24 10 13 1018.0 1017.6 0.0
13/10:30pm 15.0 11.5 3.5 46 5.3 W 11 13 6 7 1017.8 1017.4 0.0
13/10:00pm 15.7 12.1 3.2 43 5.7 W 11 13 6 7 1017.7 1017.3 0.0
13/09:30pm 16.4 12.5 3.5 42 6.0 WSW 13 17 7 9 1017.6 1017.2 0.0
13/09:00pm 17.0 12.2 2.6 38 6.6 WSW 17 20 9 11 1017.5 1017.0 0.0
13/08:30pm 17.3 13.4 1.3 34 7.1 WSW 11 13 6 7 1017.1 1016.6 0.0
13/08:00pm 18.8 13.6 0.4 29 8.2 WSW 17 22 9 12 1016.9 1016.4 0.0
13/07:30pm 20.0 12.3 -0.1 26 8.9 WSW 30 37 16 20 1016.6 1016.1 0.0
13/07:00pm 20.8 13.9 0.1 25 9.3 WSW 26 35 14 19 1016.6 1016.1 0.0
13/06:30pm 21.3 13.1 0.5 25 9.4 WSW 33 43 18 23 1016.3 1015.8 0.0
13/06:00pm 21.7 14.2 1.4 26 9.4 WSW 30 44 16 24 1016.1 1015.6 0.0
13/05:30pm 21.6 13.4 0.2 24 9.7 WSW 33 46 18 25 1016.2 1015.7 0.0
13/05:00pm 21.1 13.8 0.3 25 9.4 WSW 28 37 15 20 1016.3 1015.8 0.0
13/04:30pm 22.1 14.9 0.6 24 9.8 W 28 46 15 25 1016.5 1016.0 0.0
13/04:27pm 21.2 13.9 -0.1 24 9.5 W 28 46 15 25 1016.3 1015.8 0.0
13/04:00pm 20.7 13.1 0.5 26 9.1 W 30 43 16 23 1016.3 1015.8 0.0
13/03:30pm 21.5 15.1 0.7 25 9.5 W 24 35 13 19 1016.6 1016.1 0.0
13/03:00pm 20.6 13.7 -0.1 25 9.2 WSW 26 39 14 21 1017.0 1016.5 0.0
13/02:30pm 19.9 13.3 -0.7 25 9.0 WSW 24 41 13 22 1017.4 1016.9 0.0
13/02:00pm 19.6 14.0 0.1 27 8.6 W 19 37 10 20 1017.6 1017.2 0.0
13/01:30pm 18.8 12.1 -1.1 26 8.6 W 24 39 13 21 1018.1 1017.7 0.0
13/01:00pm 18.4 12.2 -0.4 28 8.2 W 22 33 12 18 1018.1 1017.7 0.0
13/12:30pm 17.4 11.6 -1.3 28 7.9 WSW 19 37 10 20 1018.8 1018.4 0.0
13/12:00pm 16.8 11.6 0.0 32 7.2 WSW 17 26 9 14 1018.7 1018.3 0.0
13/11:30am 16.4 11.4 1.3 36 6.7 SW 17 30 9 16 1019.1 1018.7 0.0
13/11:00am 15.1 8.6 0.2 36 6.3 SW 24 37 13 20 1020.1 1019.7 0.0
13/10:30am 14.8 8.5 1.3 40 5.9 SW 24 35 13 19 1020.1 1019.7 0.0
13/10:00am 13.8 7.5 1.5 43 5.3 SSW 24 35 13 19 1020.1 1019.7 0.0
13/09:30am 13.6 7.8 2.5 47 4.9 SSW 22 33 12 18 1020.1 1019.7 0.0
13/09:00am 12.6 7.4 2.5 50 4.4 SW 19 26 10 14 1020.0 1019.6 0.0
13/08:30am 11.9 7.1 2.6 53 4.1 SW 17 24 9 13 1019.7 1019.3 0.0
13/08:00am 11.2 6.3 2.0 53 3.9 SW 17 22 9 12 1019.3 1018.9 0.0
13/07:30am 9.9 6.6 2.3 59 3.2 W 9 11 5 6 1019.0 1018.6 0.0
13/07:00am 8.4 6.7 1.8 63 2.7 CALM 0 0 0 0 1018.7 1018.3 0.0
13/06:30am 6.8 5.2 2.5 74 1.8 CALM 0 0 0 0 1018.4 1018.0 0.0
13/06:00am 6.6 4.9 1.7 71 2.0 CALM 0 0 0 0 1018.2 1017.8 0.0
13/05:30am 8.5 5.7 2.3 65 2.6 S 6 7 3 4 1017.9 1017.5 0.0
13/05:00am 9.1 5.4 2.4 63 2.8 SSW 11 15 6 8 1017.8 1017.4 0.0
13/04:30am 9.3 5.8 1.5 58 3.2 SSW 9 11 5 6 1017.7 1017.3 0.0
13/04:00am 10.2 6.4 1.6 55 3.6 SSW 11 17 6 9 1017.5 1017.0 0.0
13/03:30am 11.1 6.5 1.4 51 4.1 SW 15 19 8 10 1017.3 1016.8 0.0
13/03:00am 11.9 6.3 1.3 48 4.5 SW 20 26 11 14 1017.2 1016.7 0.0
13/02:30am 12.6 5.1 1.3 46 4.8 SW 30 41 16 22 1017.1 1016.6 0.0
13/02:00am 13.1 4.9 0.5 42 5.3 SW 33 48 18 26 1017.0 1016.5 0.0
13/01:54am 13.2 5.9 0.3 41 5.4 SW 28 48 15 26 1017.0 1016.5 0.0
13/01:30am 13.3 6.8 0.3 41 5.5 SW 24 32 13 17 1016.9 1016.4 0.0
13/01:00am 13.9 7.4 0.5 40 5.7 SW 24 33 13 18 1016.6 1016.1 0.0
13/12:30am 14.4 7.0 -0.5 36 6.2 SW 28 39 15 21 1016.6 1016.1 0.0
13/12:00am 15.0 7.0 -2.0 31 6.9 SW 30 39 16 21 1016.3 1015.8 0.0
 
Date/Time
EDT
Temp
°C
App
Temp
°C
Dew
Point
°C
Rel
Hum
%
Delta-T
°C
Wind Press
QNH
hPa
Press
MSL
hPa
Rain since
9am
mm
Dir  Spd
km/h
Gust
km/h
Spd
kts
Gust
kts
12/11:30pm 15.4 7.4 -2.1 30 7.1 SW 30 39 16 21 1016.0 1015.5 0.0

Other formats

Comma delimited format used in spreadsheet applications
http://www.bom.gov.au/fwo/IDN60801/IDN60801.95704.axf

JavaScript Object Notation format (JSON) in row-major order
http://www.bom.gov.au/fwo/IDN60801/IDN60801.95704.json

Data quality

Most of these data are generated automatically and are frequently updated. Quality checks on data are not normally performed. It is possible for incorrect values to appear. Refer to information at About Latest Weather Observations and please check the disclaimer before using these data.